Time;durP1;ratioP1;P1;durP2;ratioP2;P2;SDS_P1;SDS_P2;PMS_P1;PMS_P2;Temp;Humidity;BMP_temperature;BMP_pressure;BME280_temperature;BME280_humidity;BME280_pressure;Samples;Min_cycle;Max_cycle;Signal;HPM_P1;HPM_P2
2022/06/03 00:02:15;;;;;;;6.60;6.00;;;;;;;;;;5083253;28;24445;-45
2022/06/03 00:05:04;;;;;;;6.73;6.23;;;;;;;;;;5088044;28;24508;-46
2022/06/03 00:07:48;;;;;;;6.70;6.30;;;;;;;;;;5092077;28;24511;-45
2022/06/03 00:10:13;;;;;;;6.45;6.05;;;;;;;;;;5094680;28;24504;-45
2022/06/03 00:12:38;;;;;;;6.40;6.00;;;;;;;;;;5093967;28;24545;-45
2022/06/03 00:15:12;;;;;;;6.43;6.03;;;;;;;;;;5090871;28;24430;-46
2022/06/03 00:17:56;;;;;;;6.50;6.10;;;;;;;;;;5075530;28;24424;-46
2022/06/03 00:20:34;;;;;;;6.68;6.28;;;;;;;;;;5086697;28;24444;-45
2022/06/03 00:23:10;;;;;;;6.97;6.47;;;;;;;;;;5089401;28;24464;-46
2022/06/03 00:25:54;;;;;;;6.90;6.50;;;;;;;;;;5090316;28;25017;-45
2022/06/03 00:28:20;;;;;;;6.60;6.20;;;;;;;;;;5094620;28;24525;-45
2022/06/03 00:30:53;;;;;;;6.88;6.47;;;;;;;;;;5095770;28;24457;-45
2022/06/03 00:33:31;;;;;;;6.50;6.10;;;;;;;;;;5088420;28;25003;-45
2022/06/03 00:36:15;;;;;;;6.85;6.40;;;;;;;;;;5085208;28;24434;-45
2022/06/03 00:38:44;;;;;;;7.00;6.50;;;;;;;;;;5085713;28;24425;-45
2022/06/03 00:41:14;;;;;;;7.10;6.70;;;;;;;;;;5094062;28;24434;-45
2022/06/03 00:44:03;;;;;;;6.70;6.30;;;;;;;;;;5083117;28;24446;-45
2022/06/03 00:46:35;;;;;;;6.40;6.00;;;;;;;;;;5057253;28;24533;-45
2022/06/03 00:49:19;;;;;;;7.10;6.60;;;;;;;;;;5065154;28;24667;-45
2022/06/03 00:51:46;;;;;;;7.20;6.70;;;;;;;;;;5067009;28;24423;-45
2022/06/03 00:54:22;;;;;;;7.20;6.80;;;;;;;;;;5082023;28;24438;-45
2022/06/03 00:56:59;;;;;;;7.05;6.45;;;;;;;;;;5078416;28;24513;-45
2022/06/03 00:59:46;;;;;;;7.05;6.65;;;;;;;;;;5064657;28;24416;-45
2022/06/03 01:02:22;;;;;;;6.70;6.30;;;;;;;;;;5058385;28;24531;-45
2022/06/03 01:05:06;;;;;;;7.15;6.75;;;;;;;;;;5064702;28;24988;-45
2022/06/03 01:07:41;;;;;;;6.90;6.50;;;;;;;;;;5077206;28;24952;-45
2022/06/03 01:10:27;;;;;;;6.70;6.30;;;;;;;;;;5068627;28;24474;-44
2022/06/03 01:12:54;;;;;;;6.93;6.43;;;;;;;;;;5066204;28;24431;-45
2022/06/03 01:15:59;;;;;;;7.38;6.90;;;;;;;;;;5066796;28;24816;-45
2022/06/03 01:18:31;;;;;;;6.72;6.32;;;;;;;;;;4965040;28;24585;-45
2022/06/03 01:20:56;;;;;;;6.57;6.18;;;;;;;;;;4970111;28;25206;-52
2022/06/03 01:23:33;;;;;;;6.25;5.85;;;;;;;;;;5025198;28;24940;-45
2022/06/03 01:26:11;;;;;;;6.28;5.78;;;;;;;;;;5076123;28;24784;-46
2022/06/03 01:29:02;;;;;;;6.35;5.95;;;;;;;;;;5064396;28;24438;-45
2022/06/03 01:31:44;;;;;;;6.60;6.20;;;;;;;;;;5067981;28;24423;-45
2022/06/03 01:34:27;;;;;;;6.35;5.95;;;;;;;;;;5042815;28;24442;-45
2022/06/03 01:37:04;;;;;;;6.87;6.37;;;;;;;;;;5070262;28;24418;-46
2022/06/03 01:39:56;;;;;;;6.63;6.22;;;;;;;;;;5064531;28;24999;-45
2022/06/03 01:42:32;;;;;;;6.70;6.30;;;;;;;;;;5073057;28;24434;-45
2022/06/03 01:45:16;;;;;;;7.10;6.70;;;;;;;;;;5077449;28;24434;-45
2022/06/03 01:47:59;;;;;;;6.75;6.35;;;;;;;;;;5067968;28;24422;-45
2022/06/03 01:50:46;;;;;;;6.65;6.25;;;;;;;;;;5080945;28;24509;-45
2022/06/03 01:53:18;;;;;;;6.72;6.32;;;;;;;;;;5075045;28;25506;-45
2022/06/03 01:56:14;;;;;;;6.30;5.90;;;;;;;;;;5085953;28;24410;-45
2022/06/03 01:59:03;;;;;;;7.10;6.60;;;;;;;;;;5080188;28;24444;-46
2022/06/03 02:01:31;;;;;;;6.80;6.40;;;;;;;;;;5074190;28;24430;-46
2022/06/03 02:04:10;;;;;;;7.00;6.50;;;;;;;;;;5082334;28;24422;-46
2022/06/03 02:07:08;;;;;;;6.65;6.25;;;;;;;;;;5082170;28;24564;-46
2022/06/03 02:09:36;;;;;;;6.90;6.50;;;;;;;;;;5030417;28;24520;-47
2022/06/03 02:12:23;;;;;;;8.50;8.00;;;;;;;;;;5067799;28;24515;-47
2022/06/03 02:15:07;;;;;;;7.10;6.70;;;;;;;;;;5071512;28;25042;-46
2022/06/03 02:18:05;;;;;;;6.47;6.07;;;;;;;;;;5077797;28;24784;-46
2022/06/03 02:20:48;;;;;;;6.30;5.90;;;;;;;;;;5025052;28;24980;-46
2022/06/03 02:23:27;;;;;;;6.93;6.43;;;;;;;;;;5076976;28;24776;-45
2022/06/03 02:25:59;;;;;;;6.60;6.20;;;;;;;;;;5075321;28;24910;-45
2022/06/03 02:28:43;;;;;;;6.30;5.90;;;;;;;;;;5069447;28;24464;-46
2022/06/03 02:31:27;;;;;;;6.60;6.20;;;;;;;;;;5070532;28;24418;-46
2022/06/03 02:33:52;;;;;;;6.72;6.22;;;;;;;;;;5079565;28;24438;-46
2022/06/03 02:36:42;;;;;;;6.70;6.30;;;;;;;;;;5072556;28;24485;-46
2022/06/03 02:39:26;;;;;;;6.75;6.25;;;;;;;;;;5074678;28;24422;-46
2022/06/03 02:41:58;;;;;;;6.80;6.40;;;;;;;;;;5073979;28;24511;-44
2022/06/03 02:44:42;;;;;;;6.60;6.20;;;;;;;;;;5067684;28;24454;-45
2022/06/03 02:47:26;;;;;;;6.50;6.10;;;;;;;;;;5060424;28;24594;-45
2022/06/03 02:50:13;;;;;;;7.20;6.70;;;;;;;;;;5072200;28;24426;-44
2022/06/03 02:52:51;;;;;;;7.22;6.82;;;;;;;;;;5067810;28;24477;-46
2022/06/03 02:55:16;;;;;;;6.88;6.47;;;;;;;;;;5074020;28;24442;-45
2022/06/03 02:58:05;;;;;;;6.70;6.20;;;;;;;;;;5077083;28;24959;-45
2022/06/03 03:00:36;;;;;;;6.70;6.30;;;;;;;;;;5072099;28;24469;-45
2022/06/03 03:03:12;;;;;;;6.20;5.80;;;;;;;;;;5071212;28;24414;-47
2022/06/03 03:05:37;;;;;;;6.70;6.30;;;;;;;;;;5070931;28;24430;-44
2022/06/03 03:08:21;;;;;;;6.95;6.45;;;;;;;;;;5060590;28;24431;-46
2022/06/03 03:10:58;;;;;;;7.60;7.00;;;;;;;;;;5078107;28;24949;-46
2022/06/03 03:13:47;;;;;;;7.13;6.63;;;;;;;;;;5084696;28;24525;-45
2022/06/03 03:16:17;;;;;;;6.78;6.38;;;;;;;;;;5076811;28;24875;-46
2022/06/03 03:18:53;;;;;;;7.40;6.90;;;;;;;;;;5091614;28;24418;-45
2022/06/03 03:21:24;;;;;;;7.18;6.70;;;;;;;;;;5080270;28;24486;-45
2022/06/03 03:24:13;;;;;;;7.40;6.90;;;;;;;;;;5089722;28;24434;-46
2022/06/03 03:26:48;;;;;;;7.20;6.70;;;;;;;;;;5059372;28;24430;-46
2022/06/03 03:29:32;;;;;;;7.35;6.70;;;;;;;;;;5084058;28;24915;-46
2022/06/03 03:32:20;;;;;;;7.07;6.57;;;;;;;;;;5071891;28;24430;-46
2022/06/03 03:34:57;;;;;;;7.27;6.70;;;;;;;;;;5070250;28;24519;-46
2022/06/03 03:37:29;;;;;;;5.67;5.37;;;;;;;;;;5073025;28;24391;-45
2022/06/03 03:40:12;;;;;;;6.47;6.07;;;;;;;;;;5073244;28;24403;-45
2022/06/03 03:42:55;;;;;;;6.07;5.68;;;;;;;;;;5086493;28;24433;-46
2022/06/03 03:45:29;;;;;;;6.40;5.95;;;;;;;;;;5113854;28;24389;-46
2022/06/03 03:48:13;;;;;;;5.88;5.47;;;;;;;;;;5113527;28;24485;-46
2022/06/03 03:50:41;;;;;;;5.40;5.10;;;;;;;;;;5098395;28;24382;-46
2022/06/03 03:53:17;;;;;;;5.90;5.50;;;;;;;;;;5087819;28;24426;-45
2022/06/03 03:55:59;;;;;;;5.70;5.30;;;;;;;;;;5093666;28;24388;-45
2022/06/03 03:58:35;;;;;;;5.73;5.33;;;;;;;;;;5093413;28;24382;-46
2022/06/03 04:01:19;;;;;;;6.20;5.70;;;;;;;;;;5093154;28;24485;-46
2022/06/03 04:03:53;;;;;;;6.10;5.70;;;;;;;;;;5090314;28;24979;-45
2022/06/03 04:06:44;;;;;;;6.10;5.50;;;;;;;;;;5096957;28;24441;-46
2022/06/03 04:09:24;;;;;;;5.20;4.90;;;;;;;;;;5088865;28;24427;-45
2022/06/03 04:11:55;;;;;;;5.70;5.20;;;;;;;;;;5090474;28;24414;-46
2022/06/03 04:14:32;;;;;;;5.60;5.30;;;;;;;;;;5079351;28;25079;-46
2022/06/03 04:17:03;;;;;;;5.30;5.00;;;;;;;;;;5079780;28;24429;-46
2022/06/03 04:19:50;;;;;;;5.32;4.85;;;;;;;;;;5076337;28;24434;-46
2022/06/03 04:22:25;;;;;;;5.20;4.90;;;;;;;;;;5081862;28;24418;-46
2022/06/03 04:24:59;;;;;;;4.90;4.60;;;;;;;;;;5082859;28;25063;-48
2022/06/03 04:27:49;;;;;;;5.10;4.70;;;;;;;;;;5094329;28;24483;-46
2022/06/03 04:30:19;;;;;;;4.90;4.50;;;;;;;;;;5102503;28;24515;-46
2022/06/03 04:33:03;;;;;;;4.37;4.07;;;;;;;;;;5098344;28;24505;-47
2022/06/03 04:35:47;;;;;;;4.40;4.00;;;;;;;;;;5104707;28;24425;-46
2022/06/03 04:38:15;;;;;;;5.03;4.63;;;;;;;;;;5091802;28;24561;-46
2022/06/03 04:40:55;;;;;;;3.83;3.63;;;;;;;;;;5081733;28;25036;-46
2022/06/03 04:43:41;;;;;;;3.92;3.72;;;;;;;;;;5074410;28;24434;-46
2022/06/03 04:46:09;;;;;;;3.97;3.78;;;;;;;;;;5060269;28;24434;-46
2022/06/03 04:48:54;;;;;;;4.65;4.35;;;;;;;;;;5059879;28;25074;-47
2022/06/03 04:51:34;;;;;;;3.88;3.67;;;;;;;;;;5059025;28;24435;-46
2022/06/03 04:54:20;;;;;;;4.10;3.80;;;;;;;;;;5056945;28;24421;-45
2022/06/03 04:57:05;;;;;;;4.10;3.90;;;;;;;;;;5060469;28;24493;-47
2022/06/03 04:59:47;;;;;;;3.90;3.60;;;;;;;;;;5057201;28;24543;-47
2022/06/03 05:02:18;;;;;;;3.50;3.30;;;;;;;;;;5067168;28;24414;-47
2022/06/03 05:05:07;;;;;;;3.22;3.03;;;;;;;;;;5062520;28;25203;-47
2022/06/03 05:07:51;;;;;;;3.75;3.45;;;;;;;;;;5077859;28;24773;-47
2022/06/03 05:10:35;;;;;;;4.07;3.78;;;;;;;;;;5057206;28;24431;-47
2022/06/03 05:13:06;;;;;;;3.88;3.67;;;;;;;;;;5050303;28;24433;-47
2022/06/03 05:15:43;;;;;;;3.58;3.28;;;;;;;;;;5065947;28;24428;-46
2022/06/03 05:18:24;;;;;;;3.50;2.90;;;;;;;;;;5072534;28;24409;-47
2022/06/03 05:21:04;;;;;;;3.15;2.85;;;;;;;;;;5069066;28;24415;-46
2022/06/03 05:23:44;;;;;;;3.60;3.30;;;;;;;;;;5064115;28;24422;-46
2022/06/03 05:26:12;;;;;;;3.30;3.00;;;;;;;;;;5052841;28;24968;-46
2022/06/03 05:28:57;;;;;;;3.30;3.10;;;;;;;;;;5066902;28;24980;-46
2022/06/03 05:31:41;;;;;;;3.03;2.83;;;;;;;;;;5065333;28;25107;-47
2022/06/03 05:34:12;;;;;;;2.97;2.77;;;;;;;;;;5067524;28;24391;-47
2022/06/03 05:36:53;;;;;;;3.05;2.85;;;;;;;;;;5067862;28;24549;-46
2022/06/03 05:39:28;;;;;;;3.70;3.50;;;;;;;;;;5067491;28;24395;-44
2022/06/03 05:45:08;;;;;;;3.43;3.13;;;;;;;;;;5074412;28;24472;-46
2022/06/03 05:47:33;;;;;;;3.15;2.85;;;;;;;;;;5078233;28;24453;-46
2022/06/03 05:50:01;;;;;;;3.40;3.20;;;;;;;;;;5060651;28;24426;-46
2022/06/03 05:52:45;;;;;;;4.50;4.10;;;;;;;;;;5072124;28;24464;-46
2022/06/03 05:55:27;;;;;;;3.55;3.35;;;;;;;;;;5046053;28;24423;-47
2022/06/03 05:57:52;;;;;;;3.60;3.40;;;;;;;;;;5077294;28;24984;-47
2022/06/03 06:00:17;;;;;;;3.50;3.30;;;;;;;;;;5077370;28;24968;-46
2022/06/03 06:02:50;;;;;;;4.10;3.80;;;;;;;;;;5077139;28;24430;-46
2022/06/03 06:05:17;;;;;;;3.90;3.70;;;;;;;;;;5068032;28;24450;-46
2022/06/03 06:07:45;;;;;;;3.60;3.40;;;;;;;;;;5065361;28;24480;-46
2022/06/03 06:10:29;;;;;;;4.10;3.80;;;;;;;;;;5083495;28;24414;-46
2022/06/03 06:13:12;;;;;;;3.88;3.67;;;;;;;;;;5076737;28;24522;-47
2022/06/03 06:15:56;;;;;;;3.60;3.40;;;;;;;;;;5071407;28;25029;-47
2022/06/03 06:18:38;;;;;;;4.03;3.80;;;;;;;;;;5064531;28;24434;-46
2022/06/03 06:21:09;;;;;;;4.20;3.90;;;;;;;;;;5085293;28;24415;-46
2022/06/03 06:23:36;;;;;;;3.90;3.60;;;;;;;;;;5072920;28;25045;-46
2022/06/03 06:26:13;;;;;;;3.50;3.30;;;;;;;;;;5053685;28;24976;-47
2022/06/03 06:28:56;;;;;;;3.60;3.40;;;;;;;;;;5061864;28;24465;-44
2022/06/03 06:31:47;;;;;;;3.80;3.40;;;;;;;;;;5069587;28;24426;-44
2022/06/03 06:34:20;;;;;;;3.95;3.65;;;;;;;;;;5064754;28;24422;-44
2022/06/03 06:37:02;;;;;;;3.70;3.50;;;;;;;;;;5079133;28;24495;-45
2022/06/03 06:39:48;;;;;;;4.00;3.60;;;;;;;;;;5056166;28;24952;-45
2022/06/03 06:42:32;;;;;;;3.60;3.40;;;;;;;;;;5046439;28;24644;-45
2022/06/03 06:45:03;;;;;;;3.45;3.25;;;;;;;;;;5043134;28;24506;-45
2022/06/03 06:47:28;;;;;;;3.80;3.40;;;;;;;;;;5057633;28;24433;-45
2022/06/03 06:49:53;;;;;;;3.83;3.53;;;;;;;;;;5066316;28;24433;-45
2022/06/03 06:52:25;;;;;;;3.30;3.10;;;;;;;;;;5084082;28;24399;-45
2022/06/03 06:54:58;;;;;;;3.75;3.50;;;;;;;;;;5058475;28;24422;-45
2022/06/03 06:57:23;;;;;;;3.30;3.10;;;;;;;;;;5044325;28;24401;-45
2022/06/03 06:59:49;;;;;;;3.30;3.10;;;;;;;;;;5046474;28;24422;-45
2022/06/03 07:02:18;;;;;;;3.33;3.13;;;;;;;;;;5061668;28;24867;-45
2022/06/03 07:04:47;;;;;;;3.50;3.20;;;;;;;;;;5066140;28;25237;-45
2022/06/03 07:07:36;;;;;;;3.47;3.28;;;;;;;;;;5066192;28;24414;-45
2022/06/03 07:10:04;;;;;;;3.47;3.17;;;;;;;;;;5052728;28;24434;-45
2022/06/03 07:12:34;;;;;;;2.90;2.70;;;;;;;;;;5065810;28;24403;-45
2022/06/03 07:15:05;;;;;;;2.80;2.60;;;;;;;;;;5064122;28;25213;-45
2022/06/03 07:20:45;;;;;;;2.50;2.40;;;;;;;;;;5066226;28;24432;-44
2022/06/03 07:23:24;;;;;;;3.35;2.78;;;;;;;;;;5065931;28;24387;-44
2022/06/03 07:25:56;;;;;;;2.97;2.70;;;;;;;;;;5058995;28;24477;-46
2022/06/03 07:28:30;;;;;;;3.10;2.50;;;;;;;;;;5063801;28;24572;-45
2022/06/03 07:31:01;;;;;;;2.57;2.37;;;;;;;;;;5065844;28;24997;-45
2022/06/03 07:33:29;;;;;;;2.70;2.50;;;;;;;;;;5065444;28;24781;-45
2022/06/03 07:35:57;;;;;;;2.80;2.60;;;;;;;;;;5066393;28;24809;-45
2022/06/03 07:38:34;;;;;;;2.60;2.27;;;;;;;;;;5064236;28;24479;-45
2022/06/03 07:41:05;;;;;;;2.50;2.30;;;;;;;;;;5068459;28;24491;-46
2022/06/03 07:43:35;;;;;;;3.55;2.50;;;;;;;;;;5080326;28;24590;-45
2022/06/03 07:46:06;;;;;;;2.80;2.60;;;;;;;;;;5089916;28;24515;-45
2022/06/03 07:48:32;;;;;;;2.90;2.53;;;;;;;;;;5087621;28;24454;-45
2022/06/03 07:50:59;;;;;;;2.40;2.30;;;;;;;;;;5087637;28;24986;-45
2022/06/03 07:53:33;;;;;;;2.70;2.50;;;;;;;;;;5089767;28;25011;-45
2022/06/03 07:55:59;;;;;;;2.60;2.40;;;;;;;;;;5089896;28;24393;-45
2022/06/03 07:58:25;;;;;;;2.70;2.50;;;;;;;;;;5089773;28;24745;-45
2022/06/03 08:00:51;;;;;;;3.00;2.70;;;;;;;;;;5089851;28;24387;-45
2022/06/03 08:03:21;;;;;;;2.87;2.50;;;;;;;;;;5079104;28;24438;-45
2022/06/03 08:05:49;;;;;;;2.88;2.67;;;;;;;;;;5069474;28;24489;-45
2022/06/03 08:11:05;;;;;;;2.70;2.50;;;;;;;;;;5069435;28;24504;-45
2022/06/03 08:13:39;;;;;;;3.00;2.70;;;;;;;;;;5072283;28;24514;-45
2022/06/03 08:16:07;;;;;;;2.70;2.50;;;;;;;;;;5089396;28;24997;-45
2022/06/03 08:18:34;;;;;;;2.70;2.50;;;;;;;;;;5088891;28;24494;-45
2022/06/03 08:21:04;;;;;;;2.97;2.77;;;;;;;;;;5089397;28;24493;-45
2022/06/03 08:23:33;;;;;;;2.80;2.60;;;;;;;;;;5088876;28;24477;-45
2022/06/03 08:25:59;;;;;;;3.00;2.80;;;;;;;;;;5083293;28;24484;-45
2022/06/03 08:28:25;;;;;;;3.55;2.65;;;;;;;;;;5089270;28;24421;-45
2022/06/03 08:30:52;;;;;;;2.63;2.53;;;;;;;;;;5089404;28;24478;-45
2022/06/03 08:33:24;;;;;;;2.58;2.28;;;;;;;;;;5088409;28;24455;-46
2022/06/03 08:35:50;;;;;;;2.90;2.80;;;;;;;;;;5087909;28;25239;-44
2022/06/03 08:38:21;;;;;;;3.85;2.95;;;;;;;;;;5086210;28;24532;-45
2022/06/03 08:40:48;;;;;;;4.10;3.35;;;;;;;;;;5088592;28;24514;-46
2022/06/03 08:43:26;;;;;;;3.20;3.00;;;;;;;;;;5087679;28;24422;-46
2022/06/03 08:45:58;;;;;;;3.20;3.00;;;;;;;;;;5088163;28;24440;-45
2022/06/03 08:48:30;;;;;;;3.43;3.13;;;;;;;;;;5088008;28;24513;-45
2022/06/03 08:50:57;;;;;;;2.90;2.70;;;;;;;;;;5084566;28;24597;-45
2022/06/03 08:53:28;;;;;;;2.90;2.70;;;;;;;;;;5087108;28;24390;-45
2022/06/03 08:55:55;;;;;;;2.70;2.50;;;;;;;;;;5087747;28;24385;-45
2022/06/03 08:58:28;;;;;;;3.00;2.80;;;;;;;;;;5087630;28;24548;-45
2022/06/03 09:00:57;;;;;;;2.90;2.60;;;;;;;;;;5087945;28;24387;-45
2022/06/03 09:03:24;;;;;;;2.90;2.70;;;;;;;;;;5065731;28;24426;-45
2022/06/03 09:05:56;;;;;;;2.80;2.60;;;;;;;;;;5067544;28;25294;-45
2022/06/03 09:08:30;;;;;;;2.73;2.53;;;;;;;;;;5087298;28;24480;-50
2022/06/03 09:11:10;;;;;;;3.28;2.60;;;;;;;;;;5087507;28;24391;-45
2022/06/03 09:13:35;;;;;;;2.60;2.50;;;;;;;;;;5087075;28;25110;-46
2022/06/03 09:16:02;;;;;;;2.80;2.60;;;;;;;;;;5083744;28;24814;-45
2022/06/03 09:18:33;;;;;;;2.63;2.42;;;;;;;;;;5086282;28;24740;-45
2022/06/03 09:21:12;;;;;;;2.60;2.40;;;;;;;;;;5087443;28;24800;-45
2022/06/03 09:23:39;;;;;;;2.85;2.60;;;;;;;;;;5087050;28;24994;-45
2022/06/03 09:26:05;;;;;;;2.30;2.20;;;;;;;;;;5083499;28;24534;-46
2022/06/03 09:28:32;;;;;;;4.70;2.58;;;;;;;;;;5087109;28;25042;-45
2022/06/03 09:30:59;;;;;;;2.70;2.50;;;;;;;;;;5087078;28;24775;-45
2022/06/03 09:33:25;;;;;;;3.30;2.55;;;;;;;;;;5086604;28;24416;-45
2022/06/03 09:35:52;;;;;;;2.83;2.70;;;;;;;;;;5086910;28;24442;-45
2022/06/03 09:38:19;;;;;;;3.00;2.80;;;;;;;;;;5082445;28;24460;-45
2022/06/03 09:40:45;;;;;;;2.90;2.70;;;;;;;;;;5086987;28;24975;-45
2022/06/03 09:43:16;;;;;;;4.00;2.80;;;;;;;;;;5095042;28;24421;-45
2022/06/03 09:45:46;;;;;;;3.00;2.80;;;;;;;;;;5107157;28;24916;-44
2022/06/03 09:48:11;;;;;;;3.00;2.60;;;;;;;;;;5093233;28;24560;-45
2022/06/03 09:50:36;;;;;;;4.13;2.83;;;;;;;;;;5086469;28;24925;-45
2022/06/03 09:53:04;;;;;;;4.83;2.80;;;;;;;;;;5086848;28;24386;-45
2022/06/03 09:55:36;;;;;;;2.90;2.70;;;;;;;;;;5086458;28;24448;-45
2022/06/03 09:58:01;;;;;;;2.70;2.50;;;;;;;;;;5085170;28;24481;-45
2022/06/03 10:00:35;;;;;;;3.22;2.70;;;;;;;;;;5083051;28;24391;-46
2022/06/03 10:03:00;;;;;;;2.80;2.60;;;;;;;;;;5065850;28;24383;-45
2022/06/03 10:05:25;;;;;;;2.70;2.50;;;;;;;;;;5065681;28;24409;-45
2022/06/03 10:07:57;;;;;;;2.57;2.47;;;;;;;;;;5065839;28;24456;-45
2022/06/03 10:13:07;;;;;;;2.70;2.50;;;;;;;;;;5086092;28;24382;-45
2022/06/03 10:15:40;;;;;;;3.00;2.70;;;;;;;;;;5085880;28;24760;-45
2022/06/03 10:18:08;;;;;;;4.32;2.70;;;;;;;;;;5084313;28;24395;-45
2022/06/03 10:20:34;;;;;;;2.90;2.70;;;;;;;;;;5083133;28;24414;-45
2022/06/03 10:23:01;;;;;;;3.00;2.80;;;;;;;;;;5087263;28;24487;-46
2022/06/03 10:25:26;;;;;;;3.40;3.00;;;;;;;;;;5086738;28;24374;-46
2022/06/03 10:27:52;;;;;;;3.23;3.03;;;;;;;;;;5086888;28;24459;-46
2022/06/03 10:30:24;;;;;;;2.80;2.60;;;;;;;;;;5086189;28;24418;-46
2022/06/03 10:32:50;;;;;;;2.72;2.53;;;;;;;;;;5086503;28;24422;-46
2022/06/03 10:35:16;;;;;;;3.58;2.88;;;;;;;;;;5086724;28;24410;-46
2022/06/03 10:37:49;;;;;;;3.80;2.90;;;;;;;;;;5084573;28;24987;-46
2022/06/03 10:40:14;;;;;;;3.10;2.90;;;;;;;;;;5086800;28;24955;-46
2022/06/03 10:42:40;;;;;;;2.80;2.60;;;;;;;;;;5086322;28;24460;-45
2022/06/03 10:45:08;;;;;;;3.30;3.10;;;;;;;;;;5086685;28;24959;-45
2022/06/03 10:47:35;;;;;;;2.50;2.40;;;;;;;;;;5085987;28;24422;-47
2022/06/03 10:50:03;;;;;;;3.25;3.05;;;;;;;;;;5086797;28;24501;-46
2022/06/03 11:03:31;;;;;;;3.10;2.90;;;;;;;;;;5066724;28;24444;-46
2022/06/03 11:05:56;;;;;;;3.00;2.80;;;;;;;;;;5066546;28;24858;-46
2022/06/03 11:08:22;;;;;;;3.40;3.20;;;;;;;;;;5078287;28;25204;-45
2022/06/03 11:10:51;;;;;;;3.40;2.95;;;;;;;;;;5086504;28;24411;-46
2022/06/03 11:13:30;;;;;;;3.10;2.90;;;;;;;;;;5086535;28;24399;-46
2022/06/03 11:15:57;;;;;;;3.00;2.80;;;;;;;;;;5089475;28;24745;-46
2022/06/03 11:18:29;;;;;;;3.45;2.80;;;;;;;;;;5089894;28;24536;-46
2022/06/03 11:20:54;;;;;;;3.50;3.30;;;;;;;;;;5089753;28;24517;-45
2022/06/03 11:23:20;;;;;;;3.03;2.40;;;;;;;;;;5089624;28;24563;-45
2022/06/03 11:25:47;;;;;;;3.50;3.20;;;;;;;;;;5090462;28;24967;-45
2022/06/03 11:28:31;;;;;;;3.85;3.55;;;;;;;;;;5090107;28;24393;-45
2022/06/03 11:31:00;;;;;;;3.58;3.28;;;;;;;;;;5089501;28;24906;-46
2022/06/03 11:33:27;;;;;;;3.20;3.00;;;;;;;;;;5109095;28;24454;-45
2022/06/03 11:36:11;;;;;;;5.05;3.50;;;;;;;;;;5110164;28;24860;-45
2022/06/03 11:38:41;;;;;;;3.50;3.30;;;;;;;;;;5110332;28;24397;-46
2022/06/03 11:41:10;;;;;;;3.13;2.83;;;;;;;;;;5110680;28;24511;-45
2022/06/03 11:43:39;;;;;;;3.50;3.20;;;;;;;;;;5091027;28;24461;-45
2022/06/03 11:46:05;;;;;;;3.40;3.20;;;;;;;;;;5089594;28;24398;-45
2022/06/03 11:48:35;;;;;;;3.30;3.10;;;;;;;;;;5089863;28;24417;-45
2022/06/03 11:51:01;;;;;;;3.10;2.80;;;;;;;;;;5090512;28;24417;-44
2022/06/03 11:53:28;;;;;;;3.08;2.88;;;;;;;;;;5088693;28;24434;-45
2022/06/03 11:55:54;;;;;;;2.83;2.63;;;;;;;;;;5088742;28;24784;-45
2022/06/03 11:58:46;;;;;;;3.50;3.20;;;;;;;;;;5081243;28;24410;-45
2022/06/03 12:01:14;;;;;;;3.65;3.45;;;;;;;;;;5037995;28;24811;-44
2022/06/03 12:03:46;;;;;;;3.80;3.50;;;;;;;;;;5079391;28;24528;-46
2022/06/03 12:06:14;;;;;;;3.75;3.55;;;;;;;;;;5089326;28;24414;-45
2022/06/03 12:08:51;;;;;;;3.90;3.70;;;;;;;;;;5089139;28;24467;-45
2022/06/03 12:14:31;;;;;;;3.40;3.20;;;;;;;;;;5088058;28;24990;-45
2022/06/03 12:16:59;;;;;;;3.40;3.20;;;;;;;;;;5078476;28;24418;-45
2022/06/03 12:19:44;;;;;;;3.55;3.35;;;;;;;;;;5089170;28;24477;-44
2022/06/03 12:22:15;;;;;;;4.30;3.50;;;;;;;;;;5088250;28;24463;-44
2022/06/03 12:24:42;;;;;;;3.53;3.33;;;;;;;;;;5088105;28;24507;-45
2022/06/03 12:27:11;;;;;;;3.80;3.50;;;;;;;;;;5083211;28;24472;-44
2022/06/03 12:29:41;;;;;;;3.45;3.25;;;;;;;;;;5068993;28;24484;-45
2022/06/03 12:32:12;;;;;;;3.70;3.50;;;;;;;;;;5068702;28;25284;-46
2022/06/03 12:34:38;;;;;;;3.50;3.30;;;;;;;;;;5076143;28;24429;-44
2022/06/03 12:37:22;;;;;;;3.80;3.10;;;;;;;;;;5088889;28;24468;-44
2022/06/03 12:40:19;;;;;;;3.38;3.17;;;;;;;;;;5088766;28;24419;-45
2022/06/03 12:42:45;;;;;;;3.50;3.20;;;;;;;;;;5081600;28;24443;-44
2022/06/03 12:45:13;;;;;;;3.47;3.20;;;;;;;;;;5057411;28;24469;-45
2022/06/03 12:47:46;;;;;;;3.72;3.45;;;;;;;;;;5068661;28;25026;-45
2022/06/03 12:50:22;;;;;;;3.38;3.17;;;;;;;;;;5068134;28;25029;-45
2022/06/03 12:52:48;;;;;;;3.60;3.40;;;;;;;;;;5068421;28;24403;-45
2022/06/03 12:55:17;;;;;;;3.70;3.40;;;;;;;;;;5066972;28;24476;-44
2022/06/03 12:57:42;;;;;;;3.33;3.20;;;;;;;;;;5066479;28;24430;-45
2022/06/03 13:00:12;;;;;;;3.90;3.60;;;;;;;;;;5068388;28;24461;-45
2022/06/03 13:02:47;;;;;;;3.55;3.35;;;;;;;;;;5067991;28;24394;-45
2022/06/03 13:05:30;;;;;;;3.78;3.38;;;;;;;;;;5067122;28;24419;-45
2022/06/03 13:08:15;;;;;;;3.50;3.30;;;;;;;;;;5067996;28;24648;-44
2022/06/03 13:10:53;;;;;;;3.92;3.63;;;;;;;;;;5054864;28;24453;-46
2022/06/03 13:13:28;;;;;;;3.60;3.30;;;;;;;;;;5064503;28;24511;-46
2022/06/03 13:15:53;;;;;;;3.30;3.10;;;;;;;;;;5067815;28;24391;-45
2022/06/03 13:18:35;;;;;;;4.63;3.60;;;;;;;;;;5068244;28;24379;-45
2022/06/03 13:21:00;;;;;;;3.70;3.40;;;;;;;;;;5064922;28;24514;-45
2022/06/03 13:23:25;;;;;;;3.25;3.00;;;;;;;;;;5067885;28;24474;-46
2022/06/03 13:25:52;;;;;;;3.40;3.20;;;;;;;;;;5067288;28;24478;-46
2022/06/03 13:28:18;;;;;;;3.40;3.20;;;;;;;;;;5067971;28;24394;-46
2022/06/03 13:31:01;;;;;;;3.20;3.00;;;;;;;;;;5064644;28;24933;-46
2022/06/03 13:33:26;;;;;;;2.80;2.60;;;;;;;;;;5060870;28;24574;-46
2022/06/03 13:36:03;;;;;;;3.60;3.30;;;;;;;;;;5067365;28;24486;-46
2022/06/03 13:38:40;;;;;;;3.37;3.17;;;;;;;;;;5067598;28;24414;-46
2022/06/03 13:44:19;;;;;;;3.55;2.95;;;;;;;;;;5060133;28;24442;-44
2022/06/03 13:46:48;;;;;;;3.90;3.10;;;;;;;;;;5067342;28;24475;-44
2022/06/03 13:49:17;;;;;;;3.42;3.20;;;;;;;;;;5067571;28;24426;-44
2022/06/03 13:51:53;;;;;;;3.83;2.80;;;;;;;;;;5067281;28;24389;-44
2022/06/03 13:54:31;;;;;;;3.40;3.20;;;;;;;;;;5067304;28;24468;-44
2022/06/03 13:57:01;;;;;;;3.10;2.90;;;;;;;;;;5077068;28;24524;-44
2022/06/03 13:59:30;;;;;;;2.93;2.73;;;;;;;;;;5089418;28;24426;-44
2022/06/03 14:01:56;;;;;;;3.10;2.90;;;;;;;;;;5081910;28;24464;-44
2022/06/03 14:04:27;;;;;;;3.03;2.83;;;;;;;;;;5087144;28;24450;-45
2022/06/03 14:07:12;;;;;;;3.15;2.80;;;;;;;;;;5091991;28;25397;-44
2022/06/03 14:09:45;;;;;;;4.20;3.40;;;;;;;;;;5097437;28;24434;-44
2022/06/03 14:12:25;;;;;;;3.40;3.20;;;;;;;;;;5083483;28;24444;-44
2022/06/03 14:14:57;;;;;;;3.05;2.80;;;;;;;;;;5085609;28;24391;-44
2022/06/03 14:17:40;;;;;;;3.40;3.10;;;;;;;;;;5095710;28;24496;-45
2022/06/03 14:20:07;;;;;;;3.50;3.30;;;;;;;;;;5099628;28;24512;-45
2022/06/03 14:22:35;;;;;;;3.72;3.45;;;;;;;;;;5104826;28;24482;-44
2022/06/03 14:25:05;;;;;;;3.60;3.30;;;;;;;;;;5107282;28;24394;-45
2022/06/03 14:27:37;;;;;;;3.40;3.20;;;;;;;;;;5107260;28;24389;-45
2022/06/03 14:30:18;;;;;;;3.50;3.30;;;;;;;;;;5097860;28;24430;-45
2022/06/03 14:32:48;;;;;;;3.60;3.40;;;;;;;;;;5086778;28;24413;-45
2022/06/03 14:35:34;;;;;;;4.50;3.40;;;;;;;;;;5086140;28;24401;-45
2022/06/03 14:38:05;;;;;;;3.50;3.30;;;;;;;;;;5086661;28;24441;-45
2022/06/03 14:40:32;;;;;;;3.20;3.00;;;;;;;;;;5081597;28;24982;-46
2022/06/03 14:42:59;;;;;;;3.50;3.30;;;;;;;;;;5086210;28;24859;-45
2022/06/03 14:45:27;;;;;;;3.55;3.35;;;;;;;;;;5086391;28;24976;-45
2022/06/03 14:47:56;;;;;;;3.20;3.00;;;;;;;;;;5086177;28;24440;-45
2022/06/03 14:50:29;;;;;;;3.50;3.30;;;;;;;;;;5083226;28;24513;-45
2022/06/03 14:52:55;;;;;;;3.47;3.28;;;;;;;;;;5046315;28;24464;-45
2022/06/03 14:55:37;;;;;;;2.80;2.60;;;;;;;;;;5045604;28;24434;-45
2022/06/03 14:58:23;;;;;;;3.00;2.90;;;;;;;;;;5045183;28;24937;-45
2022/06/03 15:01:03;;;;;;;2.90;2.70;;;;;;;;;;5045851;28;24399;-46
2022/06/03 15:03:31;;;;;;;3.00;2.80;;;;;;;;;;5046363;28;24438;-45
2022/06/03 15:05:59;;;;;;;3.70;3.50;;;;;;;;;;5046120;28;24392;-45
2022/06/03 15:08:27;;;;;;;3.60;3.40;;;;;;;;;;5046486;28;24402;-45
2022/06/03 15:11:07;;;;;;;3.90;3.70;;;;;;;;;;5046217;28;24774;-45
2022/06/03 15:13:32;;;;;;;3.90;3.60;;;;;;;;;;5064658;28;24462;-46
2022/06/03 15:16:01;;;;;;;3.83;3.53;;;;;;;;;;5066263;28;24419;-45
2022/06/03 15:18:26;;;;;;;3.80;3.50;;;;;;;;;;5066178;28;24706;-45
2022/06/03 15:21:06;;;;;;;3.30;3.10;;;;;;;;;;5066178;28;24518;-45
2022/06/03 15:23:32;;;;;;;3.50;3.30;;;;;;;;;;5073053;28;24441;-45
2022/06/03 15:25:59;;;;;;;3.57;3.37;;;;;;;;;;5086040;28;24421;-46
2022/06/03 15:28:26;;;;;;;3.30;3.10;;;;;;;;;;5086552;28;24405;-46
2022/06/03 15:30:55;;;;;;;3.80;3.50;;;;;;;;;;5085977;28;24435;-45
2022/06/03 15:33:21;;;;;;;3.47;3.27;;;;;;;;;;5074915;28;25040;-46
2022/06/03 15:35:47;;;;;;;3.47;3.28;;;;;;;;;;5065903;28;24425;-47
2022/06/03 15:38:13;;;;;;;3.50;3.30;;;;;;;;;;5066111;28;24785;-45
2022/06/03 15:40:39;;;;;;;3.95;3.55;;;;;;;;;;5066134;28;24410;-45
2022/06/03 15:43:05;;;;;;;3.57;3.37;;;;;;;;;;5077571;28;24605;-46
2022/06/03 15:45:34;;;;;;;3.30;3.10;;;;;;;;;;5103698;28;24425;-45
2022/06/03 15:48:00;;;;;;;4.03;3.72;;;;;;;;;;5106479;28;24502;-45
2022/06/03 15:50:25;;;;;;;3.50;3.30;;;;;;;;;;5106229;28;24479;-45
2022/06/03 15:52:52;;;;;;;3.60;3.40;;;;;;;;;;5093073;28;24407;-46